createdAt,value
2022-10-17T00:01:38.276Z,100352.41
2022-10-17T00:11:44.291Z,100356.75
2022-10-17T00:21:51.635Z,100371.45
2022-10-17T00:31:58.582Z,100380.31
2022-10-17T00:42:04.362Z,100392.25
2022-10-17T00:52:14.777Z,100375.20
2022-10-17T01:02:22.689Z,100374.63
2022-10-17T01:12:38.154Z,100374.98
2022-10-17T01:22:50.824Z,100378.02
2022-10-17T01:33:00.242Z,100369.50
2022-10-17T01:43:10.064Z,100363.59
2022-10-17T01:53:21.024Z,100369.64
2022-10-17T02:03:28.849Z,100383.20
2022-10-17T02:13:50.244Z,100384.90
2022-10-17T02:24:01.985Z,100383.05
2022-10-17T02:34:14.008Z,100382.33
2022-10-17T02:44:21.533Z,100398.98
2022-10-17T02:54:37.313Z,100405.90
2022-10-17T03:04:45.820Z,100410.85
2022-10-17T03:14:51.497Z,100422.61
2022-10-17T03:24:57.282Z,100428.25
2022-10-17T03:35:03.350Z,100428.88
2022-10-17T03:45:10.819Z,100423.14
2022-10-17T03:55:16.956Z,100421.16
2022-10-17T04:05:22.790Z,100438.84
2022-10-17T04:15:28.425Z,100454.70
2022-10-17T04:25:36.648Z,100458.21
2022-10-17T04:35:42.981Z,100458.07
2022-10-17T04:45:48.722Z,100466.96
2022-10-17T04:55:54.537Z,100472.63
2022-10-17T05:06:00.333Z,100453.33
2022-10-17T05:16:06.433Z,100453.61
2022-10-17T05:26:12.273Z,100460.58
2022-10-17T05:36:18.154Z,100479.76
2022-10-17T05:46:24.860Z,100509.92
2022-10-17T05:56:30.534Z,100524.92
2022-10-17T06:06:37.302Z,100516.27
2022-10-17T06:16:43.756Z,100504.23
2022-10-17T06:26:49.972Z,100508.32
2022-10-17T06:47:03.026Z,100533.52
2022-10-17T06:57:08.771Z,100549.14
2022-10-17T07:07:14.477Z,100560.40
2022-10-17T07:17:20.411Z,100559.73
2022-10-17T07:27:26.254Z,100551.34
2022-10-17T07:37:32.639Z,100559.61
2022-10-17T07:47:38.624Z,100571.91
2022-10-17T07:57:44.316Z,100575.70
2022-10-17T08:07:50.186Z,100581.36
2022-10-17T08:17:56.129Z,100585.45
2022-10-17T08:28:02.058Z,100582.05
2022-10-17T08:38:09.992Z,100586.77
2022-10-17T08:48:19.998Z,100580.05
2022-10-17T08:58:29.012Z,100573.73
2022-10-17T09:08:44.767Z,100574.60
2022-10-17T09:19:00.894Z,100573.37
2022-10-17T09:29:16.611Z,100554.67
2022-10-17T09:39:26.243Z,100556.02
2022-10-17T09:49:35.657Z,100560.94
2022-10-17T09:59:43.714Z,100564.44
2022-10-17T10:09:50.780Z,100562.73
2022-10-17T10:19:56.880Z,100561.42
2022-10-17T10:30:03.646Z,100558.66
2022-10-17T10:40:20.124Z,100556.30
2022-10-17T10:50:32.573Z,100558.94
2022-10-17T11:00:40.905Z,100562.73
2022-10-17T11:10:54.319Z,100556.39
2022-10-17T11:21:07.115Z,100547.84
2022-10-17T11:31:16.852Z,100544.25
2022-10-17T11:41:30.876Z,100539.89
2022-10-17T11:52:01.703Z,100537.02
2022-10-17T12:02:15.277Z,100524.97
2022-10-17T12:12:29.602Z,100531.67
2022-10-17T12:22:36.193Z,100529.29
2022-10-17T12:33:05.539Z,100531.90
2022-10-17T12:53:54.984Z,100518.20
2022-10-17T13:04:06.568Z,100513.30
2022-10-17T13:14:16.521Z,100508.52
2022-10-17T13:24:32.000Z,100500.84
2022-10-17T13:34:37.755Z,100501.04
2022-10-17T13:44:43.607Z,100505.10
2022-10-17T13:54:51.755Z,100494.85
2022-10-17T14:05:22.947Z,100489.38
2022-10-17T14:15:31.453Z,100481.23
2022-10-17T14:25:38.666Z,100474.25
2022-10-17T14:35:52.558Z,100463.75
2022-10-17T14:46:00.117Z,100456.29
2022-10-17T14:56:22.130Z,100462.88
2022-10-17T15:06:31.594Z,100460.42
2022-10-17T15:16:39.486Z,100463.96
2022-10-17T15:26:43.724Z,100474.52
2022-10-17T15:36:54.017Z,100472.52
2022-10-17T15:46:59.690Z,100469.70
2022-10-17T15:57:05.420Z,100467.63
2022-10-17T16:07:11.634Z,100474.78
2022-10-17T16:17:18.676Z,100469.86
2022-10-17T16:27:24.455Z,100465.40
2022-10-17T16:37:31.021Z,100465.45
2022-10-17T16:47:37.002Z,100453.77
2022-10-17T17:07:50.854Z,100463.70
2022-10-17T17:17:57.248Z,100467.23
2022-10-17T17:28:04.772Z,100469.55
2022-10-17T17:38:10.395Z,100478.98
2022-10-17T17:48:16.264Z,100478.05
2022-10-17T17:58:22.021Z,100470.92
2022-10-17T18:08:27.841Z,100460.75
2022-10-17T18:18:33.732Z,100467.67
2022-10-17T18:38:48.477Z,100461.84
2022-10-17T18:48:54.394Z,100464.72
2022-10-17T18:59:00.084Z,100452.75
2022-10-17T19:09:08.431Z,100448.45
2022-10-17T19:19:16.824Z,100443.10
2022-10-17T19:29:25.367Z,100431.77
2022-10-17T19:39:31.297Z,100415.14
2022-10-17T19:49:37.019Z,100411.88
2022-10-17T19:59:43.123Z,100414.12
2022-10-17T20:09:48.921Z,100418.65
2022-10-17T20:19:55.042Z,100424.52
2022-10-17T20:30:02.041Z,100420.67
2022-10-17T20:40:34.274Z,100422.55
2022-10-17T20:50:38.464Z,100424.70
2022-10-17T21:00:44.796Z,100427.20
2022-10-17T21:10:50.483Z,100422.59
2022-10-17T21:20:56.290Z,100419.84
2022-10-17T21:31:15.097Z,100410.39
2022-10-17T21:41:22.439Z,100403.02
2022-10-17T21:51:28.497Z,100403.81
2022-10-17T22:01:36.162Z,100407.70
2022-10-17T22:11:42.301Z,100407.06
2022-10-17T22:21:48.416Z,100407.70
2022-10-17T22:31:54.151Z,100410.20
2022-10-17T22:41:59.992Z,100403.69
2022-10-17T22:52:06.234Z,100407.23
2022-10-17T23:02:11.853Z,100398.87
2022-10-17T23:12:17.833Z,100405.23
2022-10-17T23:22:23.662Z,100404.20
2022-10-17T23:32:29.860Z,100410.60
2022-10-17T23:42:35.966Z,100401.83
2022-10-17T23:52:41.869Z,100407.66
